createdAt,value
2019-05-30T00:00:21.012Z,99.90
2019-05-30T00:02:49.781Z,99.90
2019-05-30T00:05:18.485Z,99.90
2019-05-30T00:07:47.181Z,99.90
2019-05-30T00:10:16.064Z,99.90
2019-05-30T00:12:44.488Z,99.90
2019-05-30T00:15:13.789Z,99.90
2019-05-30T00:17:42.199Z,99.90
2019-05-30T00:20:11.330Z,99.90
2019-05-30T00:22:39.751Z,99.90
2019-05-30T00:25:08.521Z,99.90
2019-05-30T00:27:37.180Z,99.90
2019-05-30T00:30:23.970Z,99.90
2019-05-30T00:32:40.097Z,99.90
2019-05-30T00:35:08.910Z,99.90
2019-05-30T00:37:37.925Z,99.90
2019-05-30T00:40:08.508Z,99.90
2019-05-30T00:42:37.055Z,99.90
2019-05-30T00:45:17.918Z,99.90
2019-05-30T00:47:37.125Z,99.90
2019-05-30T00:50:09.400Z,99.90
2019-05-30T00:52:37.819Z,99.90
2019-05-30T00:55:07.171Z,99.90
2019-05-30T00:57:35.949Z,99.90
2019-05-30T01:00:07.333Z,99.90
2019-05-30T01:02:35.823Z,99.90
2019-05-30T01:05:07.902Z,99.90
2019-05-30T01:07:36.966Z,99.90
2019-05-30T01:10:07.505Z,99.90
2019-05-30T01:12:36.424Z,99.90
2019-05-30T01:15:07.544Z,99.90
2019-05-30T01:17:36.010Z,99.90
2019-05-30T01:20:07.477Z,99.90
2019-05-30T01:22:36.280Z,99.90
2019-05-30T01:25:07.657Z,99.90
2019-05-30T01:27:37.208Z,99.90
2019-05-30T01:30:10.602Z,99.90
2019-05-30T01:32:38.996Z,99.90
2019-05-30T01:35:08.303Z,99.90
2019-05-30T01:37:37.119Z,99.90
2019-05-30T01:40:08.830Z,99.90
2019-05-30T01:42:37.870Z,99.90
2019-05-30T01:45:08.734Z,99.90
2019-05-30T01:47:37.862Z,99.90
2019-05-30T01:50:11.212Z,99.90
2019-05-30T01:52:40.015Z,99.90
2019-05-30T01:55:10.631Z,99.90
2019-05-30T01:57:39.029Z,99.90
2019-05-30T02:00:19.942Z,99.90
2019-05-30T02:02:39.780Z,99.90
2019-05-30T02:05:09.749Z,99.90
2019-05-30T02:07:38.407Z,99.90
2019-05-30T02:10:09.725Z,99.90
2019-05-30T02:12:38.772Z,99.90
2019-05-30T02:15:08.089Z,99.90
2019-05-30T02:17:36.495Z,99.90
2019-05-30T02:20:08.081Z,99.90
2019-05-30T02:22:36.498Z,99.90
2019-05-30T02:25:08.634Z,99.90
2019-05-30T02:27:37.045Z,99.90
2019-05-30T02:30:09.367Z,99.90
2019-05-30T02:32:38.097Z,99.90
2019-05-30T02:35:07.877Z,99.90
2019-05-30T02:37:37.573Z,99.90
2019-05-30T02:40:10.741Z,99.90
2019-05-30T02:42:38.335Z,99.90
2019-05-30T02:45:07.851Z,99.90
2019-05-30T02:47:37.476Z,99.90
2019-05-30T02:50:10.728Z,99.90
2019-05-30T02:52:38.608Z,99.90
2019-05-30T02:55:10.140Z,99.90
2019-05-30T02:57:37.807Z,99.90
2019-05-30T03:00:15.401Z,99.90
2019-05-30T03:02:39.359Z,99.90
2019-05-30T03:05:10.884Z,99.90
2019-05-30T03:07:38.137Z,99.90
2019-05-30T03:10:09.648Z,99.90
2019-05-30T03:12:38.212Z,99.90
2019-05-30T03:15:10.140Z,99.90
2019-05-30T03:17:38.257Z,99.90
2019-05-30T03:20:16.083Z,99.90
2019-05-30T03:22:37.521Z,99.90
2019-05-30T03:25:09.545Z,99.90
2019-05-30T03:27:37.310Z,99.90
2019-05-30T03:30:13.346Z,99.90
2019-05-30T03:35:17.431Z,99.90
2019-05-30T03:37:38.461Z,99.90
2019-05-30T03:40:07.410Z,99.90
2019-05-30T03:42:36.194Z,99.90
2019-05-30T03:45:10.421Z,99.90
2019-05-30T03:47:40.973Z,99.90
2019-05-30T03:50:15.203Z,99.90
2019-05-30T03:52:42.724Z,99.90
2019-05-30T03:55:14.421Z,99.90
2019-05-30T03:57:57.531Z,99.90
2019-05-30T04:00:31.751Z,99.90
2019-05-30T04:03:19.820Z,99.90
2019-05-30T04:06:00.560Z,99.90
2019-05-30T04:08:34.817Z,99.90
2019-05-30T04:11:07.673Z,99.90
2019-05-30T04:13:51.412Z,99.90
2019-05-30T04:16:19.991Z,99.90
2019-05-30T04:18:48.726Z,99.90
2019-05-30T04:21:21.022Z,99.90
2019-05-30T04:23:47.729Z,99.90
2019-05-30T04:26:17.894Z,99.90
2019-05-30T04:28:47.011Z,99.90
2019-05-30T04:31:17.239Z,99.90
2019-05-30T04:33:46.341Z,99.90
2019-05-30T04:36:14.814Z,99.90
2019-05-30T04:38:43.746Z,99.90
2019-05-30T04:41:13.509Z,99.90
2019-05-30T04:43:42.291Z,99.90
2019-05-30T04:46:12.143Z,99.90
2019-05-30T04:48:40.846Z,99.90
2019-05-30T04:51:10.212Z,99.90
2019-05-30T04:53:39.689Z,99.90
2019-05-30T04:56:08.112Z,99.90
2019-05-30T04:58:41.586Z,99.90
2019-05-30T05:01:07.256Z,99.90
2019-05-30T05:03:45.972Z,99.90
2019-05-30T05:06:06.509Z,99.90
2019-05-30T05:08:34.905Z,99.90
2019-05-30T05:11:03.637Z,99.90
2019-05-30T05:13:32.301Z,99.90
2019-05-30T05:16:00.993Z,99.90
2019-05-30T05:18:29.396Z,99.90
2019-05-30T05:20:57.808Z,99.90
2019-05-30T05:23:26.235Z,99.90
2019-05-30T05:26:00.850Z,99.90
2019-05-30T05:28:25.114Z,99.90
2019-05-30T05:30:53.809Z,99.90
2019-05-30T05:33:22.652Z,99.90
2019-05-30T05:35:51.211Z,99.90
2019-05-30T05:38:20.197Z,99.90
2019-05-30T05:40:48.701Z,99.90
2019-05-30T05:43:18.705Z,99.90
2019-05-30T05:45:47.232Z,99.90
2019-05-30T05:48:16.532Z,99.90
2019-05-30T05:50:45.449Z,99.90
2019-05-30T05:53:14.147Z,99.90
2019-05-30T05:55:42.856Z,99.90
2019-05-30T05:58:11.356Z,99.90
2019-05-30T06:00:40.052Z,99.90
2019-05-30T06:03:08.478Z,99.90
2019-05-30T06:05:51.986Z,99.90
2019-05-30T06:08:07.672Z,99.90
2019-05-30T06:10:36.115Z,99.90
2019-05-30T06:13:04.923Z,99.90
2019-05-30T06:15:33.679Z,99.90
2019-05-30T06:18:02.573Z,99.90
2019-05-30T06:20:31.272Z,99.90
2019-05-30T06:22:59.727Z,99.90
2019-05-30T06:25:32.509Z,99.90
2019-05-30T06:27:58.255Z,99.90
2019-05-30T06:30:26.741Z,99.90
2019-05-30T06:32:55.393Z,99.90
2019-05-30T06:35:24.999Z,99.90
2019-05-30T06:37:53.509Z,99.90
2019-05-30T06:40:23.626Z,99.90
2019-05-30T06:42:52.259Z,99.90
2019-05-30T06:45:23.667Z,99.90
2019-05-30T06:47:51.783Z,99.90
2019-05-30T06:50:20.698Z,99.90
2019-05-30T06:52:49.178Z,99.90
2019-05-30T06:55:18.093Z,99.90
2019-05-30T06:57:46.781Z,99.90
2019-05-30T07:00:16.026Z,99.90
2019-05-30T07:02:44.428Z,99.90
2019-05-30T07:05:14.080Z,99.90
2019-05-30T07:07:43.028Z,99.90
2019-05-30T07:10:12.329Z,99.90
2019-05-30T07:12:41.049Z,99.90
2019-05-30T07:15:11.583Z,99.90
2019-05-30T07:17:40.004Z,99.90
2019-05-30T07:20:09.793Z,99.90
2019-05-30T07:22:38.316Z,99.90
2019-05-30T07:25:07.900Z,99.90
2019-05-30T07:27:36.343Z,99.90
2019-05-30T07:30:08.694Z,99.90
2019-05-30T07:32:37.383Z,99.90
2019-05-30T07:35:07.609Z,99.90
2019-05-30T07:37:36.537Z,99.90
2019-05-30T07:40:09.997Z,99.90
2019-05-30T07:42:38.805Z,99.90
2019-05-30T07:45:09.614Z,99.90
2019-05-30T07:47:38.609Z,99.90
2019-05-30T07:50:09.284Z,99.90
2019-05-30T07:52:38.915Z,99.90
2019-05-30T07:55:08.872Z,99.90
2019-05-30T07:57:40.668Z,99.90
2019-05-30T08:00:10.324Z,99.90
2019-05-30T08:02:39.100Z,99.90
2019-05-30T08:05:22.767Z,99.90
2019-05-30T08:07:39.081Z,99.90
2019-05-30T08:10:08.473Z,99.90
2019-05-30T08:12:38.238Z,99.90
2019-05-30T08:15:12.441Z,99.90
2019-05-30T08:17:44.090Z,99.90
2019-05-30T08:20:11.930Z,99.90
2019-05-30T08:22:40.340Z,99.90
2019-05-30T08:25:09.573Z,99.90
2019-05-30T08:27:38.765Z,99.90
2019-05-30T08:30:08.824Z,99.90
2019-05-30T08:32:38.770Z,99.90
2019-05-30T08:35:08.483Z,99.90
2019-05-30T08:37:37.417Z,99.90
2019-05-30T08:40:08.024Z,99.90
2019-05-30T08:42:38.175Z,99.90
2019-05-30T08:45:09.821Z,99.90
2019-05-30T08:47:40.381Z,99.90
2019-05-30T08:50:10.918Z,99.90
2019-05-30T08:52:40.989Z,99.90
2019-05-30T08:55:10.655Z,99.90
2019-05-30T08:57:40.757Z,99.90
2019-05-30T09:00:11.932Z,99.90
2019-05-30T09:02:40.989Z,99.90
2019-05-30T09:05:10.870Z,99.90
2019-05-30T09:07:40.287Z,99.90
2019-05-30T09:10:10.062Z,99.80
2019-05-30T09:12:40.419Z,99.90
2019-05-30T09:15:11.966Z,96.90
2019-05-30T09:17:42.373Z,96.50
2019-05-30T09:20:12.385Z,94.60
2019-05-30T09:22:41.813Z,92.40
2019-05-30T09:25:12.121Z,91.50
2019-05-30T09:27:42.685Z,88.50
2019-05-30T09:30:13.740Z,81.40
2019-05-30T09:32:43.239Z,81.10
2019-05-30T09:35:13.035Z,80.00
2019-05-30T09:37:42.407Z,80.60
2019-05-30T09:40:14.180Z,73.60
2019-05-30T09:42:44.507Z,73.80
2019-05-30T09:45:15.433Z,72.00
2019-05-30T09:47:46.668Z,67.50
2019-05-30T09:50:14.447Z,63.10
2019-05-30T09:52:43.580Z,61.10
2019-05-30T09:55:14.312Z,62.70
2019-05-30T09:57:44.240Z,59.70
2019-05-30T10:00:16.375Z,55.80
2019-05-30T10:02:46.582Z,56.10
2019-05-30T10:05:16.057Z,56.90
2019-05-30T10:07:45.534Z,51.40
2019-05-30T10:10:15.656Z,51.00
2019-05-30T10:12:45.585Z,51.30
2019-05-30T10:15:15.404Z,52.70
2019-05-30T10:17:44.535Z,50.00
2019-05-30T10:20:14.360Z,50.60
2019-05-30T10:22:42.776Z,50.80
2019-05-30T10:25:11.576Z,50.70
2019-05-30T10:27:40.028Z,51.30
2019-05-30T10:30:12.677Z,50.40
2019-05-30T10:32:41.268Z,50.20
2019-05-30T10:35:10.550Z,51.10
2019-05-30T10:37:38.960Z,50.20
2019-05-30T10:40:08.722Z,47.40
2019-05-30T10:42:37.136Z,44.80
2019-05-30T10:45:11.352Z,45.80
2019-05-30T10:47:39.750Z,45.50
2019-05-30T10:50:09.923Z,44.10
2019-05-30T10:52:38.726Z,42.10
2019-05-30T10:55:08.680Z,41.40
2019-05-30T10:57:37.645Z,41.50
2019-05-30T11:00:10.196Z,40.30
2019-05-30T11:02:39.127Z,40.40
2019-05-30T11:05:08.125Z,41.00
2019-05-30T11:08:03.971Z,42.50
2019-05-30T11:10:38.798Z,42.70
2019-05-30T11:13:13.466Z,41.80
2019-05-30T11:15:42.377Z,40.60
2019-05-30T11:18:11.406Z,39.80
2019-05-30T11:20:40.064Z,37.30
2019-05-30T11:23:08.924Z,37.30
2019-05-30T11:25:37.553Z,37.20
2019-05-30T11:28:07.208Z,38.50
2019-05-30T11:30:36.101Z,38.70
2019-05-30T11:33:05.422Z,40.00
2019-05-30T11:35:34.055Z,40.00
2019-05-30T11:38:03.081Z,37.80
2019-05-30T11:40:31.827Z,36.90
2019-05-30T11:43:00.524Z,36.30
2019-05-30T11:45:29.328Z,33.70
2019-05-30T11:47:58.133Z,36.20
2019-05-30T11:50:27.642Z,37.10
2019-05-30T11:52:56.361Z,37.10
2019-05-30T11:55:25.040Z,36.10
2019-05-30T11:57:54.634Z,38.00
2019-05-30T12:00:23.685Z,37.10
2019-05-30T12:02:52.368Z,36.00
2019-05-30T12:05:22.979Z,35.30
2019-05-30T12:07:52.665Z,35.70
2019-05-30T12:10:23.661Z,37.70
2019-05-30T12:12:53.250Z,33.90
2019-05-30T12:15:21.959Z,31.60
2019-05-30T12:17:51.167Z,34.10
2019-05-30T12:20:19.877Z,36.20
2019-05-30T12:22:48.293Z,37.10
2019-05-30T12:25:18.283Z,33.70
2019-05-30T12:27:46.695Z,32.80
2019-05-30T12:30:16.268Z,30.40
2019-05-30T12:32:44.768Z,30.70
2019-05-30T12:35:14.722Z,31.30
2019-05-30T12:37:54.031Z,32.00
2019-05-30T12:40:14.545Z,30.50
2019-05-30T12:42:43.252Z,31.70
2019-05-30T12:45:12.157Z,31.80
2019-05-30T12:47:40.836Z,30.50
2019-05-30T12:50:10.741Z,30.00
2019-05-30T12:52:39.475Z,30.90
2019-05-30T12:55:10.106Z,30.70
2019-05-30T12:57:38.585Z,29.70
2019-05-30T13:00:18.364Z,29.50
2019-05-30T13:02:42.961Z,29.80
2019-05-30T13:05:12.075Z,30.40
2019-05-30T13:07:40.779Z,30.30
2019-05-30T13:10:09.823Z,31.50
2019-05-30T13:12:38.581Z,29.80
2019-05-30T13:15:08.101Z,29.90
2019-05-30T13:17:36.510Z,33.00
2019-05-30T13:20:09.895Z,32.60
2019-05-30T13:22:38.700Z,30.80
2019-05-30T13:25:12.944Z,30.90
2019-05-30T13:27:41.339Z,30.00
2019-05-30T13:30:10.907Z,31.50
2019-05-30T13:32:39.321Z,34.40
2019-05-30T13:35:08.366Z,35.20
2019-05-30T13:37:36.868Z,37.20
2019-05-30T13:40:24.171Z,38.50
2019-05-30T13:42:40.378Z,38.20
2019-05-30T13:45:10.314Z,38.20
2019-05-30T13:47:38.904Z,35.50
2019-05-30T13:50:12.679Z,36.60
2019-05-30T13:52:39.074Z,36.10
2019-05-30T13:55:10.064Z,36.50
2019-05-30T13:57:38.620Z,35.40
2019-05-30T14:00:08.653Z,34.70
2019-05-30T14:02:37.462Z,36.00
2019-05-30T14:05:08.420Z,36.20
2019-05-30T14:07:37.221Z,34.70
2019-05-30T14:10:10.833Z,36.80
2019-05-30T14:12:39.712Z,36.50
2019-05-30T14:15:29.433Z,36.00
2019-05-30T14:18:00.830Z,36.70
2019-05-30T14:20:29.441Z,36.00
2019-05-30T14:22:58.176Z,36.20
2019-05-30T14:25:26.583Z,36.40
2019-05-30T14:27:55.019Z,35.50
2019-05-30T14:30:23.484Z,32.90
2019-05-30T14:32:51.895Z,30.70
2019-05-30T14:35:20.473Z,30.00
2019-05-30T14:37:49.355Z,30.60
2019-05-30T14:40:18.436Z,30.80
2019-05-30T14:42:47.160Z,32.10
2019-05-30T14:45:17.487Z,31.30
2019-05-30T14:47:45.900Z,29.70
2019-05-30T14:50:15.429Z,31.80
2019-05-30T14:52:44.121Z,32.10
2019-05-30T14:55:13.380Z,32.60
2019-05-30T14:57:42.331Z,31.50
2019-05-30T15:00:13.793Z,31.10
2019-05-30T15:02:42.731Z,30.80
2019-05-30T15:05:13.553Z,32.00
2019-05-30T15:07:42.659Z,32.40
2019-05-30T15:10:12.755Z,33.30
2019-05-30T15:12:41.409Z,33.80
2019-05-30T15:15:13.200Z,35.00
2019-05-30T15:17:40.556Z,33.60
2019-05-30T15:20:10.670Z,33.60
2019-05-30T15:22:40.276Z,34.60
2019-05-30T15:25:09.909Z,32.20
2019-05-30T15:27:38.606Z,32.60
2019-05-30T15:30:08.737Z,31.70
2019-05-30T15:32:37.131Z,34.50
2019-05-30T15:35:06.829Z,36.00
2019-05-30T15:37:35.321Z,37.40
2019-05-30T15:40:06.750Z,37.80
2019-05-30T15:42:35.604Z,37.80
2019-05-30T15:45:07.856Z,38.50
2019-05-30T15:47:36.910Z,35.90
2019-05-30T15:50:08.742Z,34.80
2019-05-30T15:52:37.411Z,33.90
2019-05-30T15:55:09.187Z,32.70
2019-05-30T15:57:38.152Z,33.00
2019-05-30T16:00:12.117Z,34.00
2019-05-30T16:02:41.114Z,33.40
2019-05-30T16:05:10.548Z,33.50
2019-05-30T16:07:39.144Z,33.60
2019-05-30T16:10:09.327Z,31.70
2019-05-30T16:12:37.745Z,32.50
2019-05-30T16:15:09.522Z,32.90
2019-05-30T16:17:37.940Z,33.50
2019-05-30T16:20:07.444Z,34.20
2019-05-30T16:22:36.223Z,33.90
2019-05-30T16:25:06.341Z,33.90
2019-05-30T16:27:35.036Z,34.10
2019-05-30T16:30:05.137Z,35.40
2019-05-30T16:32:33.865Z,36.10
2019-05-30T16:35:02.275Z,35.40
2019-05-30T16:37:30.696Z,36.20
2019-05-30T16:40:05.816Z,37.60
2019-05-30T16:42:29.788Z,40.00
2019-05-30T16:44:58.196Z,42.30
2019-05-30T16:47:26.892Z,43.60
2019-05-30T16:49:55.684Z,45.40
2019-05-30T16:52:24.121Z,46.70
2019-05-30T16:54:52.778Z,47.60
2019-05-30T16:57:22.620Z,47.70
2019-05-30T16:59:51.188Z,48.70
2019-05-30T17:02:20.826Z,49.90
2019-05-30T17:04:49.297Z,48.50
2019-05-30T17:07:19.032Z,47.90
2019-05-30T17:09:47.944Z,49.60
2019-05-30T17:12:17.327Z,50.10
2019-05-30T17:14:46.324Z,51.40
2019-05-30T17:17:16.133Z,52.90
2019-05-30T17:19:44.817Z,54.60
2019-05-30T17:22:13.229Z,55.20
2019-05-30T17:24:42.280Z,56.40
2019-05-30T17:27:11.180Z,57.30
2019-05-30T17:32:07.759Z,57.60
2019-05-30T17:34:36.488Z,59.00
2019-05-30T17:37:05.061Z,59.10
2019-05-30T17:39:33.483Z,60.70
2019-05-30T17:42:01.879Z,59.90
2019-05-30T17:44:30.352Z,59.40
2019-05-30T17:46:59.065Z,59.30
2019-05-30T17:49:27.840Z,59.30
2019-05-30T17:51:56.588Z,59.50
2019-05-30T17:54:26.006Z,60.20
2019-05-30T17:56:54.541Z,60.50
2019-05-30T17:59:24.329Z,61.40
2019-05-30T18:01:52.848Z,61.40
2019-05-30T18:04:22.469Z,61.60
2019-05-30T18:06:51.015Z,61.70
2019-05-30T18:09:20.959Z,61.70
2019-05-30T18:11:52.346Z,62.30
2019-05-30T18:14:21.067Z,61.60
2019-05-30T18:16:49.909Z,62.20
2019-05-30T18:19:18.316Z,62.80
2019-05-30T18:21:46.982Z,63.00
2019-05-30T18:24:15.685Z,63.50
2019-05-30T18:26:44.130Z,64.30
2019-05-30T18:29:12.893Z,65.10
2019-05-30T18:31:41.309Z,67.00
2019-05-30T18:34:09.740Z,67.70
2019-05-30T18:36:38.144Z,69.40
2019-05-30T18:39:08.250Z,69.40
2019-05-30T18:41:36.656Z,70.90
2019-05-30T18:44:05.423Z,71.20
2019-05-30T18:46:33.834Z,72.10
2019-05-30T18:49:02.569Z,72.80
2019-05-30T18:51:31.012Z,75.00
2019-05-30T18:53:59.661Z,74.60
2019-05-30T18:56:28.696Z,75.70
2019-05-30T18:58:57.261Z,76.10
2019-05-30T19:01:25.679Z,76.40
2019-05-30T19:03:54.093Z,77.70
2019-05-30T19:06:22.756Z,79.10
2019-05-30T19:08:51.165Z,80.90
2019-05-30T19:11:28.014Z,82.00
2019-05-30T19:13:49.738Z,84.00
2019-05-30T19:16:18.463Z,86.50
2019-05-30T19:18:46.869Z,88.70
2019-05-30T19:21:15.569Z,91.60
2019-05-30T19:23:44.265Z,92.60
2019-05-30T19:26:12.965Z,93.00
2019-05-30T19:28:41.664Z,94.00
2019-05-30T19:31:10.357Z,95.40
2019-05-30T19:33:39.068Z,95.70
2019-05-30T19:36:07.474Z,97.10
2019-05-30T19:38:37.473Z,97.80
2019-05-30T19:41:06.046Z,97.80
2019-05-30T19:43:35.932Z,97.60
2019-05-30T19:46:04.650Z,99.20
2019-05-30T19:48:34.301Z,99.20
2019-05-30T19:51:02.984Z,99.10
2019-05-30T19:53:31.384Z,99.60
2019-05-30T19:55:59.800Z,99.90
2019-05-30T19:58:29.526Z,99.90
2019-05-30T20:00:59.234Z,99.90
2019-05-30T20:03:37.505Z,99.90
2019-05-30T20:05:58.010Z,99.90
2019-05-30T20:08:26.676Z,99.90
2019-05-30T20:10:55.385Z,99.90
2019-05-30T20:13:23.924Z,99.90
2019-05-30T20:15:52.587Z,99.90
2019-05-30T20:18:21.282Z,99.90
2019-05-30T20:20:57.243Z,99.90
2019-05-30T20:23:20.108Z,99.90
2019-05-30T20:25:48.543Z,99.90
2019-05-30T20:28:16.949Z,99.90
2019-05-30T20:30:45.343Z,99.90
2019-05-30T20:33:14.106Z,99.90
2019-05-30T20:35:43.459Z,99.90
2019-05-30T20:38:11.996Z,99.90
2019-05-30T20:40:40.931Z,99.90
2019-05-30T20:43:09.485Z,99.90
2019-05-30T20:45:41.992Z,99.90
2019-05-30T20:48:08.117Z,99.90
2019-05-30T20:50:37.199Z,99.90
2019-05-30T20:53:05.616Z,99.90
2019-05-30T20:55:34.097Z,99.90
2019-05-30T20:58:02.612Z,99.90
2019-05-30T21:00:40.104Z,99.90
2019-05-30T21:03:09.332Z,99.90
2019-05-30T21:05:38.036Z,99.90
2019-05-30T21:08:06.904Z,99.90
2019-05-30T21:10:36.919Z,99.90
2019-05-30T21:13:06.598Z,99.90
2019-05-30T21:15:37.404Z,99.90
2019-05-30T21:18:06.705Z,99.90
2019-05-30T21:20:35.831Z,99.90
2019-05-30T21:23:04.772Z,99.90
2019-05-30T21:25:35.781Z,99.90
2019-05-30T21:28:03.532Z,99.90
2019-05-30T21:30:31.942Z,99.90
2019-05-30T21:33:00.857Z,99.90
2019-05-30T21:35:29.323Z,99.90
2019-05-30T21:37:57.786Z,99.90
2019-05-30T21:40:26.476Z,99.90
2019-05-30T21:43:04.640Z,99.90
2019-05-30T21:45:25.824Z,99.90
2019-05-30T21:47:54.228Z,99.90
2019-05-30T21:50:22.925Z,99.90
2019-05-30T21:52:51.618Z,99.90
2019-05-30T21:57:48.714Z,99.90
2019-05-30T22:00:20.799Z,99.90
2019-05-30T22:02:54.147Z,99.90
2019-05-30T22:05:23.693Z,99.90
2019-05-30T22:07:52.125Z,99.90
2019-05-30T22:10:20.923Z,99.90
2019-05-30T22:12:49.782Z,99.90
2019-05-30T22:15:18.428Z,99.90
2019-05-30T22:17:47.923Z,99.90
2019-05-30T22:20:16.667Z,99.90
2019-05-30T22:22:46.146Z,99.90
2019-05-30T22:25:14.803Z,99.90
2019-05-30T22:27:44.338Z,99.90
2019-05-30T22:30:13.555Z,99.90
2019-05-30T22:32:42.606Z,99.90
2019-05-30T22:35:11.389Z,99.90
2019-05-30T22:37:39.809Z,99.90
2019-05-30T22:40:08.781Z,99.90
2019-05-30T22:42:37.196Z,99.90
2019-05-30T22:45:06.934Z,99.90
2019-05-30T22:47:35.412Z,99.90
2019-05-30T22:50:05.507Z,99.90
2019-05-30T22:52:34.230Z,99.90
2019-05-30T22:55:02.933Z,99.90
2019-05-30T22:57:31.624Z,99.90
2019-05-30T23:00:00.325Z,99.90
2019-05-30T23:02:29.637Z,99.90
2019-05-30T23:04:58.333Z,99.90
2019-05-30T23:07:26.748Z,99.90
2019-05-30T23:09:55.912Z,99.90
2019-05-30T23:12:24.425Z,99.90
2019-05-30T23:14:52.832Z,99.90
2019-05-30T23:17:21.238Z,99.90
2019-05-30T23:19:51.422Z,99.90
2019-05-30T23:22:19.783Z,99.90
2019-05-30T23:24:52.049Z,99.90
2019-05-30T23:27:20.520Z,99.90
2019-05-30T23:29:49.744Z,99.90
2019-05-30T23:32:18.204Z,99.90
2019-05-30T23:34:46.617Z,99.90
2019-05-30T23:37:15.336Z,99.90
2019-05-30T23:39:44.059Z,99.90
2019-05-30T23:42:12.524Z,99.90
2019-05-30T23:44:41.265Z,99.90
2019-05-30T23:47:09.728Z,99.90
2019-05-30T23:49:38.188Z,99.90
2019-05-30T23:52:06.922Z,99.90
2019-05-30T23:54:35.607Z,99.90
2019-05-30T23:57:04.180Z,99.90
2019-05-30T23:59:32.584Z,99.90
